createdAt,value
2023-04-07T00:00:27.130Z,2.80
2023-04-07T00:02:53.647Z,2.85
2023-04-07T00:05:21.586Z,2.60
2023-04-07T00:07:55.931Z,2.10
2023-04-07T00:10:23.643Z,4.45
2023-04-07T00:12:50.176Z,2.58
2023-04-07T00:15:16.822Z,2.97
2023-04-07T00:17:43.413Z,2.90
2023-04-07T00:20:10.660Z,2.30
2023-04-07T00:22:38.384Z,2.60
2023-04-07T00:25:05.585Z,3.30
2023-04-07T00:27:32.063Z,2.75
2023-04-07T00:29:58.471Z,2.70
2023-04-07T00:32:24.984Z,1.92
2023-04-07T00:34:51.434Z,2.78
2023-04-07T00:37:17.924Z,1.90
2023-04-07T00:39:45.805Z,2.63
2023-04-07T00:42:12.460Z,2.50
2023-04-07T00:44:38.966Z,2.28
2023-04-07T00:47:05.607Z,1.73
2023-04-07T00:49:32.098Z,2.70
2023-04-07T00:51:58.628Z,2.15
2023-04-07T00:54:25.257Z,2.47
2023-04-07T00:56:53.686Z,3.85
2023-04-07T00:59:20.598Z,2.85
2023-04-07T01:01:55.507Z,3.28
2023-04-07T01:04:27.652Z,1.45
2023-04-07T01:06:58.873Z,2.30
2023-04-07T01:09:30.386Z,3.28
2023-04-07T01:12:05.820Z,3.53
2023-04-07T01:14:37.811Z,3.58
2023-04-07T01:17:07.735Z,4.18
2023-04-07T01:19:37.890Z,2.45
2023-04-07T01:22:10.528Z,3.28
2023-04-07T01:24:55.492Z,2.97
2023-04-07T01:27:36.326Z,2.95
2023-04-07T01:30:08.684Z,3.65
2023-04-07T01:32:36.732Z,3.15
2023-04-07T01:35:04.734Z,1.80
2023-04-07T01:37:33.179Z,2.28
2023-04-07T01:39:59.711Z,3.05
2023-04-07T01:42:27.313Z,1.65
2023-04-07T01:44:54.327Z,2.25
2023-04-07T01:47:22.592Z,3.20
2023-04-07T01:49:50.920Z,3.40
2023-04-07T01:52:17.791Z,2.00
2023-04-07T01:54:45.267Z,2.15
2023-04-07T01:57:11.828Z,2.47
2023-04-07T01:59:38.283Z,2.10
2023-04-07T02:02:04.837Z,3.45
2023-04-07T02:04:37.276Z,2.13
2023-04-07T02:07:09.170Z,3.63
2023-04-07T02:09:40.232Z,5.25
2023-04-07T02:12:08.742Z,2.35
2023-04-07T02:14:36.222Z,2.45
2023-04-07T02:17:04.629Z,2.50
2023-04-07T02:19:32.724Z,1.30
2023-04-07T02:22:00.496Z,1.55
2023-04-07T02:24:26.990Z,1.88
2023-04-07T02:26:53.464Z,1.33
2023-04-07T02:29:19.981Z,2.35
2023-04-07T02:31:46.496Z,2.03
2023-04-07T02:34:13.020Z,1.88
2023-04-07T02:36:40.794Z,1.90
2023-04-07T02:39:07.362Z,1.80
2023-04-07T02:41:33.812Z,1.08
2023-04-07T02:44:00.254Z,2.72
2023-04-07T02:46:26.969Z,2.30
2023-04-07T02:48:53.433Z,1.17
2023-04-07T02:51:20.034Z,2.42
2023-04-07T02:53:47.774Z,1.33
2023-04-07T02:56:15.364Z,0.93
2023-04-07T02:58:41.888Z,1.02
2023-04-07T03:01:08.384Z,1.38
2023-04-07T03:03:35.028Z,2.05
2023-04-07T03:06:01.592Z,0.90
2023-04-07T03:08:28.077Z,1.90
2023-04-07T03:10:55.850Z,1.63
2023-04-07T03:13:22.705Z,1.92
2023-04-07T03:15:49.140Z,2.35
2023-04-07T03:18:15.671Z,0.65
2023-04-07T03:20:42.156Z,0.55
2023-04-07T03:23:08.755Z,0.85
2023-04-07T03:25:35.212Z,0.82
2023-04-07T03:28:03.054Z,0.85
2023-04-07T03:30:29.616Z,0.63
2023-04-07T03:32:56.098Z,1.60
2023-04-07T03:35:22.637Z,1.48
2023-04-07T03:37:49.117Z,1.17
2023-04-07T03:40:15.730Z,1.27
2023-04-07T03:42:43.071Z,0.75
2023-04-07T03:45:11.216Z,1.27
2023-04-07T03:47:37.702Z,0.98
2023-04-07T03:50:05.174Z,0.75
2023-04-07T03:52:31.703Z,0.40
2023-04-07T03:54:58.265Z,1.17
2023-04-07T03:57:24.805Z,0.65
2023-04-07T03:59:51.353Z,1.27
2023-04-07T04:02:19.372Z,1.13
2023-04-07T04:04:46.014Z,0.55
2023-04-07T04:07:12.505Z,0.40
2023-04-07T04:09:38.935Z,0.93
2023-04-07T04:12:05.581Z,0.43
2023-04-07T04:14:32.074Z,0.85
2023-04-07T04:16:58.512Z,0.40
2023-04-07T04:19:26.293Z,0.40
2023-04-07T04:21:52.914Z,0.60
2023-04-07T04:24:19.380Z,0.60
2023-04-07T04:26:45.925Z,1.10
2023-04-07T04:29:12.392Z,1.52
2023-04-07T04:31:38.961Z,0.52
2023-04-07T04:34:05.464Z,0.60
2023-04-07T04:36:33.270Z,0.73
2023-04-07T04:38:59.689Z,0.63
2023-04-07T04:41:26.118Z,1.05
2023-04-07T04:43:52.588Z,0.70
2023-04-07T04:46:19.041Z,0.80
2023-04-07T04:48:45.540Z,0.63
2023-04-07T04:51:11.982Z,1.13
2023-04-07T04:53:39.805Z,0.60
2023-04-07T04:56:06.862Z,1.58
2023-04-07T04:58:34.606Z,0.80
2023-04-07T05:01:01.156Z,2.25
2023-04-07T05:03:28.646Z,0.77
2023-04-07T05:05:55.277Z,0.60
2023-04-07T05:08:21.802Z,1.08
2023-04-07T05:10:49.524Z,0.88
2023-04-07T05:13:16.010Z,0.30
2023-04-07T05:15:42.511Z,0.70
2023-04-07T05:18:09.006Z,2.58
2023-04-07T05:20:35.461Z,0.95
2023-04-07T05:23:01.929Z,1.02
2023-04-07T05:25:28.505Z,11.55
2023-04-07T05:27:57.560Z,102.10
2023-04-07T05:30:24.129Z,77.20
2023-04-07T05:32:50.699Z,66.55
2023-04-07T05:35:17.318Z,74.65
2023-04-07T05:37:43.775Z,42.67
2023-04-07T05:40:10.978Z,54.85
2023-04-07T05:42:37.490Z,42.03
2023-04-07T05:45:05.949Z,44.60
2023-04-07T05:47:32.493Z,30.63
2023-04-07T05:49:58.942Z,36.75
2023-04-07T05:52:25.423Z,25.45
2023-04-07T05:54:51.883Z,19.50
2023-04-07T05:57:18.542Z,24.58
2023-04-07T05:59:45.009Z,16.98
2023-04-07T06:02:13.616Z,22.92
2023-04-07T06:04:40.304Z,14.82
2023-04-07T06:07:06.852Z,16.75
2023-04-07T06:09:33.321Z,13.65
2023-04-07T06:11:59.886Z,13.05
2023-04-07T06:14:26.409Z,8.65
2023-04-07T06:16:52.887Z,9.52
2023-04-07T06:19:20.741Z,13.55
2023-04-07T06:21:47.206Z,10.48
2023-04-07T06:24:13.677Z,10.80
2023-04-07T06:26:40.619Z,5.18
2023-04-07T06:29:07.231Z,9.65
2023-04-07T06:31:33.804Z,9.90
2023-04-07T06:34:00.445Z,9.40
2023-04-07T06:36:28.631Z,6.57
2023-04-07T06:38:55.306Z,7.63
2023-04-07T06:41:21.789Z,5.38
2023-04-07T06:43:49.770Z,3.80
2023-04-07T06:46:16.875Z,8.85
2023-04-07T06:48:43.571Z,7.68
2023-04-07T06:51:10.052Z,5.88
2023-04-07T06:53:38.055Z,6.22
2023-04-07T06:56:06.689Z,5.93
2023-04-07T06:58:33.340Z,5.05
2023-04-07T07:01:00.489Z,4.78
2023-04-07T07:03:27.133Z,4.03
2023-04-07T07:05:54.526Z,2.22
2023-04-07T07:08:21.008Z,2.63
2023-04-07T07:10:49.053Z,4.82
2023-04-07T07:13:15.577Z,3.70
2023-04-07T07:15:42.291Z,3.97
2023-04-07T07:18:08.832Z,2.00
2023-04-07T07:20:35.411Z,7.80
2023-04-07T07:23:01.864Z,19.45
2023-04-07T07:25:28.395Z,14.70
2023-04-07T07:27:56.140Z,11.40
2023-04-07T07:30:23.851Z,14.48
2023-04-07T07:32:50.950Z,14.85
2023-04-07T07:35:17.585Z,9.55
2023-04-07T07:37:44.260Z,11.02
2023-04-07T07:40:11.220Z,11.05
2023-04-07T07:42:37.910Z,5.53
2023-04-07T07:45:06.359Z,7.53
2023-04-07T07:47:33.314Z,10.20
2023-04-07T07:49:59.823Z,8.20
2023-04-07T07:52:26.373Z,4.43
2023-04-07T07:54:52.901Z,5.40
2023-04-07T07:57:19.465Z,2.83
2023-04-07T07:59:45.949Z,6.38
2023-04-07T08:02:13.885Z,3.60
2023-04-07T08:04:40.576Z,5.32
2023-04-07T08:07:07.094Z,7.00
2023-04-07T08:09:33.758Z,8.32
2023-04-07T08:12:00.392Z,8.75
2023-04-07T08:14:26.896Z,2.80
2023-04-07T08:16:53.363Z,5.07
2023-04-07T08:19:22.608Z,13.73
2023-04-07T08:21:49.339Z,48.90
2023-04-07T08:24:17.329Z,31.88
2023-04-07T08:26:45.269Z,26.42
2023-04-07T08:29:12.931Z,31.52
2023-04-07T08:31:39.561Z,26.65
2023-04-07T08:34:06.203Z,42.35
2023-04-07T08:36:34.054Z,26.20
2023-04-07T08:39:00.952Z,15.50
2023-04-07T08:41:33.136Z,24.30
2023-04-07T08:44:01.489Z,25.33
2023-04-07T08:46:29.229Z,25.55
2023-04-07T08:48:57.045Z,30.17
2023-04-07T08:51:41.410Z,13.88
2023-04-07T08:54:10.696Z,21.33
2023-04-07T08:56:38.417Z,14.27
2023-04-07T08:59:06.541Z,20.83
2023-04-07T09:01:35.224Z,10.25
2023-04-07T09:04:03.597Z,10.13
2023-04-07T09:06:30.477Z,11.70
2023-04-07T09:08:58.485Z,8.15
2023-04-07T09:11:26.523Z,7.80
2023-04-07T09:13:53.275Z,8.63
2023-04-07T09:16:20.488Z,5.55
2023-04-07T09:18:47.453Z,6.38
2023-04-07T09:21:15.212Z,9.38
2023-04-07T09:23:44.839Z,9.98
2023-04-07T09:26:22.086Z,5.93
2023-04-07T09:28:52.803Z,5.53
2023-04-07T09:31:19.388Z,8.85
2023-04-07T09:33:45.959Z,14.18
2023-04-07T09:36:12.567Z,10.70
2023-04-07T09:38:40.740Z,8.57
2023-04-07T09:41:09.595Z,8.00
2023-04-07T09:43:38.679Z,7.40
2023-04-07T09:46:09.986Z,11.13
2023-04-07T09:48:37.848Z,5.28
2023-04-07T09:51:06.644Z,7.22
2023-04-07T09:53:42.324Z,5.90
2023-04-07T09:56:09.764Z,5.22
2023-04-07T09:58:39.564Z,5.35
2023-04-07T10:01:07.741Z,5.25
2023-04-07T10:03:34.451Z,4.13
2023-04-07T10:06:01.328Z,9.02
2023-04-07T10:08:28.380Z,4.60
2023-04-07T10:10:55.570Z,4.57
2023-04-07T10:13:22.346Z,5.00
2023-04-07T10:15:50.575Z,4.28
2023-04-07T10:18:17.943Z,2.50
2023-04-07T10:20:45.602Z,1.95
2023-04-07T10:23:19.059Z,6.55
2023-04-07T10:25:46.548Z,3.60
2023-04-07T10:28:14.384Z,5.80
2023-04-07T10:30:41.783Z,11.15
2023-04-07T10:33:09.624Z,6.72
2023-04-07T10:36:00.953Z,4.07
2023-04-07T10:38:27.479Z,5.68
2023-04-07T10:40:53.969Z,3.95
2023-04-07T10:43:37.689Z,3.38
2023-04-07T10:46:04.345Z,2.42
2023-04-07T10:48:32.232Z,8.00
2023-04-07T10:51:12.977Z,9.07
2023-04-07T10:54:14.247Z,6.78
2023-04-07T10:57:00.519Z,8.45
2023-04-07T10:59:28.468Z,7.82
2023-04-07T11:02:31.373Z,10.13
2023-04-07T11:04:57.955Z,8.10
2023-04-07T11:07:45.356Z,9.77
2023-04-07T11:10:12.903Z,12.40
2023-04-07T11:12:39.424Z,5.22
2023-04-07T11:15:19.565Z,7.63
2023-04-07T11:17:46.263Z,6.07
2023-04-07T11:20:12.837Z,3.55
2023-04-07T11:22:39.366Z,9.13
2023-04-07T11:25:20.674Z,13.88
2023-04-07T11:27:47.220Z,17.25
2023-04-07T11:30:15.477Z,10.27
2023-04-07T11:32:48.166Z,15.93
2023-04-07T11:35:14.638Z,18.67
2023-04-07T11:37:41.155Z,21.60
2023-04-07T11:40:08.680Z,11.63
2023-04-07T11:42:36.124Z,10.43
2023-04-07T11:45:02.998Z,9.48
2023-04-07T11:47:37.763Z,14.65
2023-04-07T11:50:06.827Z,13.52
2023-04-07T11:52:41.320Z,6.43
2023-04-07T11:55:17.080Z,19.67
2023-04-07T11:57:44.461Z,8.65
2023-04-07T12:00:12.700Z,14.13
2023-04-07T12:02:39.273Z,8.20
2023-04-07T12:05:07.825Z,8.02
2023-04-07T12:07:34.384Z,14.45
2023-04-07T12:10:18.451Z,6.82
2023-04-07T12:15:11.796Z,7.93
2023-04-07T12:17:38.322Z,15.93
2023-04-07T12:20:07.668Z,9.77
2023-04-07T12:22:34.138Z,15.80
2023-04-07T12:25:00.742Z,9.60
2023-04-07T12:27:39.943Z,15.82
2023-04-07T12:30:08.869Z,17.15
2023-04-07T12:32:35.443Z,17.48
2023-04-07T12:35:01.865Z,8.52
2023-04-07T12:37:29.603Z,10.77
2023-04-07T12:39:56.103Z,7.50
2023-04-07T12:42:22.624Z,13.93
2023-04-07T12:44:49.034Z,10.05
2023-04-07T12:47:15.652Z,18.88
2023-04-07T12:49:42.124Z,17.38
2023-04-07T12:52:08.718Z,13.23
2023-04-07T12:54:36.487Z,17.52
2023-04-07T12:57:03.189Z,9.48
2023-04-07T12:59:29.649Z,13.45
2023-04-07T13:01:56.287Z,15.88
2023-04-07T13:04:23.181Z,14.05
2023-04-07T13:06:49.934Z,15.90
2023-04-07T13:09:16.463Z,12.93
2023-04-07T13:11:44.280Z,21.95
2023-04-07T13:14:10.815Z,11.45
2023-04-07T13:16:37.323Z,16.70
2023-04-07T13:19:03.865Z,15.32
2023-04-07T13:23:59.849Z,10.80
2023-04-07T13:26:26.352Z,9.77
2023-04-07T13:28:54.265Z,9.27
2023-04-07T13:31:20.790Z,5.70
2023-04-07T13:33:47.660Z,7.95
2023-04-07T13:36:14.351Z,10.38
2023-04-07T13:38:40.876Z,10.25
2023-04-07T13:41:07.352Z,6.47
2023-04-07T13:43:33.841Z,12.30
2023-04-07T13:46:01.696Z,13.35
2023-04-07T13:48:28.224Z,13.05
2023-04-07T13:50:54.708Z,8.73
2023-04-07T13:53:21.141Z,8.52
2023-04-07T13:55:47.710Z,7.65
2023-04-07T13:58:14.238Z,8.55
2023-04-07T14:00:40.795Z,7.32
2023-04-07T14:03:08.957Z,9.02
2023-04-07T14:05:35.540Z,7.47
2023-04-07T14:08:02.032Z,4.57
2023-04-07T14:10:28.568Z,8.50
2023-04-07T14:12:55.094Z,6.43
2023-04-07T14:15:21.622Z,8.35
2023-04-07T14:17:48.167Z,5.00
2023-04-07T14:20:16.009Z,6.25
2023-04-07T14:22:42.457Z,3.13
2023-04-07T14:25:09.213Z,5.25
2023-04-07T14:27:35.777Z,8.57
2023-04-07T14:30:02.285Z,10.63
2023-04-07T14:32:28.958Z,19.65
2023-04-07T14:34:55.504Z,11.38
2023-04-07T14:37:23.293Z,9.13
2023-04-07T14:39:59.586Z,9.13
2023-04-07T14:42:28.839Z,6.22
2023-04-07T14:44:55.459Z,7.85
2023-04-07T14:47:21.953Z,11.50
2023-04-07T14:49:48.725Z,8.45
2023-04-07T14:52:16.083Z,9.90
2023-04-07T14:54:43.876Z,5.63
2023-04-07T14:57:10.350Z,8.45
2023-04-07T14:59:37.071Z,4.82
2023-04-07T15:02:03.740Z,6.93
2023-04-07T15:04:30.402Z,9.55
2023-04-07T15:06:56.939Z,5.82
2023-04-07T15:09:23.392Z,8.82
2023-04-07T15:11:51.137Z,7.80
2023-04-07T15:14:17.571Z,6.30
2023-04-07T15:16:44.038Z,3.92
2023-04-07T15:19:10.526Z,5.55
2023-04-07T15:21:36.996Z,6.00
2023-04-07T15:24:03.589Z,5.50
2023-04-07T15:26:30.107Z,5.78
2023-04-07T15:28:57.881Z,3.63
2023-04-07T15:31:24.655Z,2.97
2023-04-07T15:33:51.111Z,2.78
2023-04-07T15:36:17.712Z,2.80
2023-04-07T15:38:44.173Z,3.20
2023-04-07T15:41:14.732Z,5.07
2023-04-07T15:43:41.214Z,4.15
2023-04-07T15:46:08.946Z,4.90
2023-04-07T15:48:35.393Z,5.30
2023-04-07T15:51:01.935Z,2.63
2023-04-07T15:53:29.185Z,4.55
2023-04-07T15:55:55.606Z,2.83
2023-04-07T15:58:22.080Z,2.40
2023-04-07T16:00:48.607Z,2.55
2023-04-07T16:03:16.677Z,3.58
2023-04-07T16:05:43.454Z,1.48
2023-04-07T16:08:11.549Z,2.72
2023-04-07T16:10:39.771Z,2.25
2023-04-07T16:13:06.196Z,3.20
2023-04-07T16:15:40.237Z,2.95
2023-04-07T16:18:10.082Z,2.33
2023-04-07T16:20:38.216Z,2.00
2023-04-07T16:23:04.666Z,1.60
2023-04-07T16:25:31.269Z,3.13
2023-04-07T16:27:57.785Z,1.65
2023-04-07T16:30:24.284Z,2.92
2023-04-07T16:32:50.782Z,2.40
2023-04-07T16:35:17.330Z,2.53
2023-04-07T16:37:45.076Z,3.42
2023-04-07T16:40:12.144Z,1.73
2023-04-07T16:42:38.640Z,1.95
2023-04-07T16:45:05.958Z,3.05
2023-04-07T16:47:32.581Z,2.53
2023-04-07T16:49:59.416Z,3.25
2023-04-07T16:52:26.016Z,1.85
2023-04-07T16:54:53.789Z,2.78
2023-04-07T16:57:20.253Z,2.22
2023-04-07T16:59:46.760Z,2.67
2023-04-07T17:02:14.350Z,3.20
2023-04-07T17:04:41.127Z,2.22
2023-04-07T17:07:08.101Z,2.50
2023-04-07T17:09:35.006Z,0.75
2023-04-07T17:12:03.591Z,0.88
2023-04-07T17:14:30.284Z,3.15
2023-04-07T17:16:56.881Z,2.45
2023-04-07T17:19:23.688Z,2.75
2023-04-07T17:21:50.150Z,0.60
2023-04-07T17:24:16.726Z,4.07
2023-04-07T17:26:43.665Z,2.83
2023-04-07T17:29:11.483Z,1.92
2023-04-07T17:31:38.038Z,2.92
2023-04-07T17:34:04.714Z,1.67
2023-04-07T17:36:31.355Z,0.95
2023-04-07T17:38:57.891Z,1.95
2023-04-07T17:41:24.970Z,1.90
2023-04-07T17:43:52.956Z,1.70
2023-04-07T17:46:21.272Z,1.95
2023-04-07T17:48:47.797Z,3.40
2023-04-07T17:51:14.312Z,2.45
2023-04-07T17:53:40.841Z,2.72
2023-04-07T17:56:07.419Z,3.55
2023-04-07T17:58:33.977Z,2.63
2023-04-07T18:01:00.483Z,3.15
2023-04-07T18:03:28.360Z,2.25
2023-04-07T18:05:54.849Z,2.60
2023-04-07T18:08:21.313Z,2.70
2023-04-07T18:10:47.870Z,2.38
2023-04-07T18:13:14.271Z,2.63
2023-04-07T18:15:40.893Z,1.88
2023-04-07T18:18:07.403Z,1.85
2023-04-07T18:20:35.235Z,3.35
2023-04-07T18:23:01.728Z,2.17
2023-04-07T18:25:28.309Z,2.28
2023-04-07T18:27:54.729Z,2.85
2023-04-07T18:30:21.260Z,3.50
2023-04-07T18:32:47.754Z,4.13
2023-04-07T18:35:14.216Z,2.50
2023-04-07T18:37:43.998Z,1.77
2023-04-07T18:40:11.285Z,1.80
2023-04-07T18:42:37.891Z,1.63
2023-04-07T18:45:04.846Z,1.45
2023-04-07T18:47:31.388Z,2.80
2023-04-07T18:49:57.882Z,2.70
2023-04-07T18:52:24.312Z,3.65
2023-04-07T18:54:52.141Z,1.95
2023-04-07T18:57:18.629Z,3.83
2023-04-07T18:59:45.148Z,3.80
2023-04-07T19:02:11.669Z,4.18
2023-04-07T19:04:38.285Z,2.40
2023-04-07T19:07:04.736Z,3.72
2023-04-07T19:09:31.276Z,2.55
2023-04-07T19:11:59.001Z,5.78
2023-04-07T19:14:25.527Z,2.70
2023-04-07T19:16:52.249Z,4.07
2023-04-07T19:19:18.877Z,3.13
2023-04-07T19:21:45.335Z,2.95
2023-04-07T19:24:11.818Z,5.25
2023-04-07T19:26:38.327Z,2.50
2023-04-07T19:29:06.118Z,3.20
2023-04-07T19:31:32.647Z,3.13
2023-04-07T19:33:59.142Z,2.47
2023-04-07T19:36:25.730Z,1.83
2023-04-07T19:38:52.197Z,2.05
2023-04-07T19:41:18.680Z,3.83
2023-04-07T19:43:45.097Z,3.72
2023-04-07T19:46:12.956Z,2.35
2023-04-07T19:48:39.484Z,2.53
2023-04-07T19:51:07.292Z,2.58
2023-04-07T19:53:34.010Z,1.95
2023-04-07T19:56:01.625Z,2.30
2023-04-07T19:58:28.110Z,2.10
2023-04-07T20:00:54.686Z,3.53
2023-04-07T20:03:22.740Z,2.47
2023-04-07T20:05:49.336Z,3.25
2023-04-07T20:08:15.825Z,3.25
2023-04-07T20:10:42.293Z,3.20
2023-04-07T20:13:08.716Z,1.98
2023-04-07T20:15:35.278Z,2.60
2023-04-07T20:18:01.901Z,2.45
2023-04-07T20:20:29.685Z,2.83
2023-04-07T20:22:56.270Z,2.45
2023-04-07T20:25:22.804Z,1.55
2023-04-07T20:27:49.364Z,1.80
2023-04-07T20:30:15.975Z,1.83
2023-04-07T20:32:42.498Z,2.28
2023-04-07T20:35:09.734Z,2.47
2023-04-07T20:37:37.482Z,2.90
2023-04-07T20:40:04.257Z,2.67
2023-04-07T20:42:30.715Z,2.28
2023-04-07T20:44:57.150Z,1.50
2023-04-07T20:47:23.664Z,2.22
2023-04-07T20:49:50.269Z,3.03
2023-04-07T20:52:16.701Z,1.92
2023-04-07T20:54:44.597Z,2.15
2023-04-07T20:57:11.059Z,2.20
2023-04-07T20:59:37.537Z,2.17
2023-04-07T21:02:04.271Z,1.50
2023-04-07T21:04:31.169Z,2.08
2023-04-07T21:06:57.734Z,1.83
2023-04-07T21:09:24.211Z,2.42
2023-04-07T21:11:51.933Z,2.45
2023-04-07T21:14:18.330Z,1.77
2023-04-07T21:16:44.804Z,1.70
2023-04-07T21:19:11.229Z,4.13
2023-04-07T21:21:37.791Z,2.70
2023-04-07T21:24:04.487Z,2.70
2023-04-07T21:26:31.034Z,3.90
2023-04-07T21:28:58.764Z,2.25
2023-04-07T21:31:25.333Z,3.30
2023-04-07T21:33:51.783Z,2.42
2023-04-07T21:36:18.222Z,3.25
2023-04-07T21:38:44.703Z,1.50
2023-04-07T21:41:11.178Z,3.00
2023-04-07T21:43:37.623Z,1.52
2023-04-07T21:46:05.421Z,2.17
2023-04-07T21:48:31.917Z,3.13
2023-04-07T21:50:58.367Z,2.88
2023-04-07T21:53:24.935Z,2.85
2023-04-07T21:55:52.177Z,1.92
2023-04-07T21:58:18.821Z,2.15
2023-04-07T22:00:47.137Z,2.53
2023-04-07T22:03:14.982Z,2.22
2023-04-07T22:05:41.544Z,2.40
2023-04-07T22:08:07.964Z,2.03
2023-04-07T22:10:34.384Z,3.60
2023-04-07T22:13:00.849Z,1.67
2023-04-07T22:15:27.290Z,1.67
2023-04-07T22:17:53.824Z,2.17
2023-04-07T22:20:21.692Z,2.08
2023-04-07T22:22:48.178Z,1.75
2023-04-07T22:25:14.724Z,1.55
2023-04-07T22:27:41.189Z,1.83
2023-04-07T22:30:08.664Z,1.88
2023-04-07T22:32:35.279Z,2.20
2023-04-07T22:35:01.842Z,2.95
2023-04-07T22:37:29.576Z,3.00
2023-04-07T22:39:56.026Z,2.20
2023-04-07T22:42:22.465Z,1.30
2023-04-07T22:44:48.906Z,3.00
2023-04-07T22:47:15.411Z,2.47
2023-04-07T22:49:41.836Z,2.30
2023-04-07T22:52:08.431Z,2.28
2023-04-07T22:54:36.228Z,1.85
2023-04-07T22:57:02.779Z,3.53
2023-04-07T22:59:29.297Z,2.35
2023-04-07T23:01:57.666Z,2.28
2023-04-07T23:04:24.504Z,3.83
2023-04-07T23:06:51.026Z,2.50
2023-04-07T23:09:17.503Z,2.47
2023-04-07T23:11:46.717Z,2.25
2023-04-07T23:14:13.216Z,2.53
2023-04-07T23:16:39.690Z,2.67
2023-04-07T23:19:06.813Z,3.15
2023-04-07T23:21:33.284Z,3.10
2023-04-07T23:23:59.725Z,3.67
2023-04-07T23:26:26.225Z,2.17
2023-04-07T23:28:54.069Z,2.47
2023-04-07T23:31:20.590Z,3.00
2023-04-07T23:33:47.219Z,3.33
2023-04-07T23:36:13.731Z,5.72
2023-04-07T23:38:40.150Z,5.28
2023-04-07T23:41:06.721Z,2.08
2023-04-07T23:43:33.185Z,3.20
2023-04-07T23:46:01.375Z,3.88
2023-04-07T23:48:27.856Z,2.72
2023-04-07T23:50:54.373Z,2.88
2023-04-07T23:53:20.833Z,2.72
2023-04-07T23:55:47.268Z,3.22
2023-04-07T23:58:13.721Z,3.70
